sensor_id;sensor_type;location;lat;lon;timestamp;temperature;humidity
19449;DHT22;9863;49.404;8.246;2023-03-01T00:01:38;-2.00;99.90
19449;DHT22;9863;49.404;8.246;2023-03-01T00:04:06;-2.00;99.90
19449;DHT22;9863;49.404;8.246;2023-03-01T00:06:33;-2.00;99.90
19449;DHT22;9863;49.404;8.246;2023-03-01T00:09:00;-2.10;99.90
19449;DHT22;9863;49.404;8.246;2023-03-01T00:11:29;-2.10;99.90
19449;DHT22;9863;49.404;8.246;2023-03-01T00:14:00;-2.10;99.90
19449;DHT22;9863;49.404;8.246;2023-03-01T00:16:34;-2.10;99.90
19449;DHT22;9863;49.404;8.246;2023-03-01T00:19:07;-2.70;99.90
19449;DHT22;9863;49.404;8.246;2023-03-01T00:21:38;-2.10;99.90
19449;DHT22;9863;49.404;8.246;2023-03-01T00:24:06;-1.90;99.90
19449;DHT22;9863;49.404;8.246;2023-03-01T00:26:34;-2.10;99.90
19449;DHT22;9863;49.404;8.246;2023-03-01T00:29:01;-2.10;99.90
19449;DHT22;9863;49.404;8.246;2023-03-01T00:31:30;-2.10;99.90
19449;DHT22;9863;49.404;8.246;2023-03-01T00:34:03;-2.00;99.90
19449;DHT22;9863;49.404;8.246;2023-03-01T00:36:34;-1.80;99.90
19449;DHT22;9863;49.404;8.246;2023-03-01T00:39:03;-1.80;99.90
19449;DHT22;9863;49.404;8.246;2023-03-01T00:41:32;-1.80;99.90
19449;DHT22;9863;49.404;8.246;2023-03-01T00:44:01;-1.20;99.90
19449;DHT22;9863;49.404;8.246;2023-03-01T00:46:28;-1.80;99.90
19449;DHT22;9863;49.404;8.246;2023-03-01T00:48:57;-1.80;99.90
19449;DHT22;9863;49.404;8.246;2023-03-01T00:51:27;-1.80;99.90
19449;DHT22;9863;49.404;8.246;2023-03-01T00:53:56;-1.80;99.90
19449;DHT22;9863;49.404;8.246;2023-03-01T00:56:26;-1.80;99.90
19449;DHT22;9863;49.404;8.246;2023-03-01T00:58:54;-1.90;99.90
19449;DHT22;9863;49.404;8.246;2023-03-01T01:01:23;-1.90;99.90
19449;DHT22;9863;49.404;8.246;2023-03-01T01:06:27;-2.00;99.90
19449;DHT22;9863;49.404;8.246;2023-03-01T01:09:03;-2.00;99.90
19449;DHT22;9863;49.404;8.246;2023-03-01T01:11:33;-2.00;99.90
19449;DHT22;9863;49.404;8.246;2023-03-01T01:14:02;-2.00;99.90
19449;DHT22;9863;49.404;8.246;2023-03-01T01:16:29;-2.00;99.90
19449;DHT22;9863;49.404;8.246;2023-03-01T01:18:57;-2.00;99.90
19449;DHT22;9863;49.404;8.246;2023-03-01T01:21:25;-2.00;99.90
19449;DHT22;9863;49.404;8.246;2023-03-01T01:23:56;-2.10;99.90
19449;DHT22;9863;49.404;8.246;2023-03-01T01:26:29;-1.90;99.90
19449;DHT22;9863;49.404;8.246;2023-03-01T01:28:59;-2.10;99.90
19449;DHT22;9863;49.404;8.246;2023-03-01T01:31:28;-2.10;99.90
19449;DHT22;9863;49.404;8.246;2023-03-01T01:33:56;-2.20;99.90
19449;DHT22;9863;49.404;8.246;2023-03-01T01:36:23;-2.20;99.90
19449;DHT22;9863;49.404;8.246;2023-03-01T01:38:51;-2.00;99.90
19449;DHT22;9863;49.404;8.246;2023-03-01T01:41:19;-2.20;99.90
19449;DHT22;9863;49.404;8.246;2023-03-01T01:44:08;-2.30;99.90
19449;DHT22;9863;49.404;8.246;2023-03-01T01:46:40;-2.30;99.90
19449;DHT22;9863;49.404;8.246;2023-03-01T01:49:38;-2.30;99.90
19449;DHT22;9863;49.404;8.246;2023-03-01T01:52:34;-2.40;99.90
19449;DHT22;9863;49.404;8.246;2023-03-01T01:55:11;-2.40;99.90
19449;DHT22;9863;49.404;8.246;2023-03-01T01:57:48;-2.40;99.90
19449;DHT22;9863;49.404;8.246;2023-03-01T02:00:20;-2.40;99.90
19449;DHT22;9863;49.404;8.246;2023-03-01T02:02:51;-2.30;99.90
19449;DHT22;9863;49.404;8.246;2023-03-01T02:08:39;-2.40;99.90
19449;DHT22;9863;49.404;8.246;2023-03-01T02:11:09;-2.40;99.90
19449;DHT22;9863;49.404;8.246;2023-03-01T02:13:37;-2.40;99.90
19449;DHT22;9863;49.404;8.246;2023-03-01T02:16:08;-2.40;99.90
19449;DHT22;9863;49.404;8.246;2023-03-01T02:18:38;-2.40;99.90
19449;DHT22;9863;49.404;8.246;2023-03-01T02:21:38;-2.40;99.90
19449;DHT22;9863;49.404;8.246;2023-03-01T02:24:33;-2.40;99.90
19449;DHT22;9863;49.404;8.246;2023-03-01T02:27:05;-2.40;99.90
19449;DHT22;9863;49.404;8.246;2023-03-01T02:29:32;-2.40;99.90
19449;DHT22;9863;49.404;8.246;2023-03-01T02:32:02;-2.40;99.90
19449;DHT22;9863;49.404;8.246;2023-03-01T02:34:31;-2.40;99.90
19449;DHT22;9863;49.404;8.246;2023-03-01T02:37:06;-2.50;99.90
19449;DHT22;9863;49.404;8.246;2023-03-01T02:39:44;-2.50;99.90
19449;DHT22;9863;49.404;8.246;2023-03-01T02:42:26;-1.70;99.90
19449;DHT22;9863;49.404;8.246;2023-03-01T02:44:55;-2.40;99.90
19449;DHT22;9863;49.404;8.246;2023-03-01T02:47:22;-2.30;99.90
19449;DHT22;9863;49.404;8.246;2023-03-01T02:49:49;-2.40;99.90
19449;DHT22;9863;49.404;8.246;2023-03-01T02:55:16;-2.30;99.90
19449;DHT22;9863;49.404;8.246;2023-03-01T02:57:46;-2.20;99.90
19449;DHT22;9863;49.404;8.246;2023-03-01T03:00:24;-1.60;99.90
19449;DHT22;9863;49.404;8.246;2023-03-01T03:02:54;-2.30;99.90
19449;DHT22;9863;49.404;8.246;2023-03-01T03:05:27;-2.30;99.90
19449;DHT22;9863;49.404;8.246;2023-03-01T03:07:56;-2.40;99.90
19449;DHT22;9863;49.404;8.246;2023-03-01T03:10:33;-2.30;99.90
19449;DHT22;9863;49.404;8.246;2023-03-01T03:13:07;-2.40;99.90
19449;DHT22;9863;49.404;8.246;2023-03-01T03:15:38;-2.40;99.90
19449;DHT22;9863;49.404;8.246;2023-03-01T03:18:08;-2.30;99.90
19449;DHT22;9863;49.404;8.246;2023-03-01T03:20:41;-2.30;99.90
19449;DHT22;9863;49.404;8.246;2023-03-01T03:23:09;-2.30;99.90
19449;DHT22;9863;49.404;8.246;2023-03-01T03:25:36;-2.30;99.90
19449;DHT22;9863;49.404;8.246;2023-03-01T03:28:05;-2.30;99.90
19449;DHT22;9863;49.404;8.246;2023-03-01T03:30:39;-2.30;99.90
19449;DHT22;9863;49.404;8.246;2023-03-01T03:33:07;-2.40;99.90
19449;DHT22;9863;49.404;8.246;2023-03-01T03:35:45;-2.40;99.90
19449;DHT22;9863;49.404;8.246;2023-03-01T03:38:15;-2.50;99.90
19449;DHT22;9863;49.404;8.246;2023-03-01T03:43:21;-2.60;99.90
19449;DHT22;9863;49.404;8.246;2023-03-01T03:45:50;-2.60;99.90
19449;DHT22;9863;49.404;8.246;2023-03-01T03:48:18;-2.60;99.90
19449;DHT22;9863;49.404;8.246;2023-03-01T03:50:51;-2.70;99.90
19449;DHT22;9863;49.404;8.246;2023-03-01T03:53:22;-2.70;99.90
19449;DHT22;9863;49.404;8.246;2023-03-01T03:55:50;-2.70;99.90
19449;DHT22;9863;49.404;8.246;2023-03-01T03:58:19;-2.70;99.90
19449;DHT22;9863;49.404;8.246;2023-03-01T04:00:50;-2.60;99.90
19449;DHT22;9863;49.404;8.246;2023-03-01T04:03:24;-2.60;99.90
19449;DHT22;9863;49.404;8.246;2023-03-01T04:05:53;-2.60;99.90
19449;DHT22;9863;49.404;8.246;2023-03-01T04:08:22;-2.50;99.90
19449;DHT22;9863;49.404;8.246;2023-03-01T04:10:53;-2.50;99.90
19449;DHT22;9863;49.404;8.246;2023-03-01T04:13:26;-2.50;99.90
19449;DHT22;9863;49.404;8.246;2023-03-01T04:15:54;-2.50;99.90
19449;DHT22;9863;49.404;8.246;2023-03-01T04:18:23;-2.50;99.90
19449;DHT22;9863;49.404;8.246;2023-03-01T04:20:53;-2.40;99.90
19449;DHT22;9863;49.404;8.246;2023-03-01T04:23:22;-2.60;99.90
19449;DHT22;9863;49.404;8.246;2023-03-01T04:25:50;-2.60;99.90
19449;DHT22;9863;49.404;8.246;2023-03-01T04:28:27;-2.60;99.90
19449;DHT22;9863;49.404;8.246;2023-03-01T04:30:57;-2.50;99.90
19449;DHT22;9863;49.404;8.246;2023-03-01T04:33:25;-2.50;99.90
19449;DHT22;9863;49.404;8.246;2023-03-01T04:35:52;-2.50;99.90
19449;DHT22;9863;49.404;8.246;2023-03-01T04:38:20;-2.50;99.90
19449;DHT22;9863;49.404;8.246;2023-03-01T04:40:47;-2.50;99.90
19449;DHT22;9863;49.404;8.246;2023-03-01T04:43:15;-2.40;99.90
19449;DHT22;9863;49.404;8.246;2023-03-01T04:45:42;-2.40;99.90
19449;DHT22;9863;49.404;8.246;2023-03-01T04:48:09;-2.40;99.90
19449;DHT22;9863;49.404;8.246;2023-03-01T04:50:36;-2.10;99.90
19449;DHT22;9863;49.404;8.246;2023-03-01T04:53:03;-2.50;99.90
19449;DHT22;9863;49.404;8.246;2023-03-01T04:55:30;-2.50;99.90
19449;DHT22;9863;49.404;8.246;2023-03-01T04:57:58;-2.50;99.90
19449;DHT22;9863;49.404;8.246;2023-03-01T05:00:25;-2.60;99.90
19449;DHT22;9863;49.404;8.246;2023-03-01T05:02:59;-2.60;99.90
19449;DHT22;9863;49.404;8.246;2023-03-01T05:05:30;-2.60;99.90
19449;DHT22;9863;49.404;8.246;2023-03-01T05:08:07;-2.60;99.90
19449;DHT22;9863;49.404;8.246;2023-03-01T05:10:38;-2.60;99.90
19449;DHT22;9863;49.404;8.246;2023-03-01T05:13:05;-2.60;99.90
19449;DHT22;9863;49.404;8.246;2023-03-01T05:15:33;-2.60;99.90
19449;DHT22;9863;49.404;8.246;2023-03-01T05:18:00;-2.60;99.90
19449;DHT22;9863;49.404;8.246;2023-03-01T05:20:29;-2.80;99.90
19449;DHT22;9863;49.404;8.246;2023-03-01T05:22:58;-2.60;99.90
19449;DHT22;9863;49.404;8.246;2023-03-01T05:25:27;-2.60;99.90
19449;DHT22;9863;49.404;8.246;2023-03-01T05:28:01;-2.60;99.90
19449;DHT22;9863;49.404;8.246;2023-03-01T05:30:32;-2.60;99.90
19449;DHT22;9863;49.404;8.246;2023-03-01T05:33:00;-2.50;99.90
19449;DHT22;9863;49.404;8.246;2023-03-01T05:35:28;-2.40;99.90
19449;DHT22;9863;49.404;8.246;2023-03-01T05:37:56;-2.40;99.90
19449;DHT22;9863;49.404;8.246;2023-03-01T05:40:24;-2.40;99.90
19449;DHT22;9863;49.404;8.246;2023-03-01T05:42:56;-2.40;99.90
19449;DHT22;9863;49.404;8.246;2023-03-01T05:45:25;-2.30;99.90
19449;DHT22;9863;49.404;8.246;2023-03-01T05:47:54;-2.40;99.90
19449;DHT22;9863;49.404;8.246;2023-03-01T05:50:27;-2.30;99.90
19449;DHT22;9863;49.404;8.246;2023-03-01T05:53:06;-2.30;99.90
19449;DHT22;9863;49.404;8.246;2023-03-01T05:55:36;-2.30;99.90
19449;DHT22;9863;49.404;8.246;2023-03-01T05:58:06;-2.30;99.90
19449;DHT22;9863;49.404;8.246;2023-03-01T06:00:35;-1.90;99.90
19449;DHT22;9863;49.404;8.246;2023-03-01T06:03:03;-2.30;99.90
19449;DHT22;9863;49.404;8.246;2023-03-01T06:05:30;-2.00;99.90
19449;DHT22;9863;49.404;8.246;2023-03-01T06:08:01;-1.60;99.90
19449;DHT22;9863;49.404;8.246;2023-03-01T06:10:29;-2.30;99.90
19449;DHT22;9863;49.404;8.246;2023-03-01T06:12:57;-2.40;99.90
19449;DHT22;9863;49.404;8.246;2023-03-01T06:15:25;-2.40;99.90
19449;DHT22;9863;49.404;8.246;2023-03-01T06:17:54;-2.30;99.90
19449;DHT22;9863;49.404;8.246;2023-03-01T06:20:27;-2.30;99.90
19449;DHT22;9863;49.404;8.246;2023-03-01T06:22:54;-2.30;99.90
19449;DHT22;9863;49.404;8.246;2023-03-01T06:25:24;-2.30;99.90
19449;DHT22;9863;49.404;8.246;2023-03-01T06:27:52;-2.20;99.90
19449;DHT22;9863;49.404;8.246;2023-03-01T06:30:21;-2.20;99.90
19449;DHT22;9863;49.404;8.246;2023-03-01T06:32:49;-2.10;99.90
19449;DHT22;9863;49.404;8.246;2023-03-01T06:35:17;-2.10;99.90
19449;DHT22;9863;49.404;8.246;2023-03-01T06:37:47;-2.10;99.90
19449;DHT22;9863;49.404;8.246;2023-03-01T06:43:05;-2.00;99.90
19449;DHT22;9863;49.404;8.246;2023-03-01T06:45:34;-1.90;99.90
19449;DHT22;9863;49.404;8.246;2023-03-01T06:48:02;-1.60;99.90
19449;DHT22;9863;49.404;8.246;2023-03-01T06:50:30;-1.80;99.90
19449;DHT22;9863;49.404;8.246;2023-03-01T06:52:58;-1.80;99.90
19449;DHT22;9863;49.404;8.246;2023-03-01T06:55:25;-1.70;99.90
19449;DHT22;9863;49.404;8.246;2023-03-01T06:57:56;-1.70;99.90
19449;DHT22;9863;49.404;8.246;2023-03-01T07:00:25;-1.30;99.90
19449;DHT22;9863;49.404;8.246;2023-03-01T07:02:53;-1.60;99.90
19449;DHT22;9863;49.404;8.246;2023-03-01T07:05:20;-1.60;99.90
19449;DHT22;9863;49.404;8.246;2023-03-01T07:07:48;-0.70;99.90
19449;DHT22;9863;49.404;8.246;2023-03-01T07:10:15;-0.60;99.90
19449;DHT22;9863;49.404;8.246;2023-03-01T07:12:42;-1.40;99.90
19449;DHT22;9863;49.404;8.246;2023-03-01T07:15:10;-1.30;99.90
19449;DHT22;9863;49.404;8.246;2023-03-01T07:17:37;-1.30;99.90
19449;DHT22;9863;49.404;8.246;2023-03-01T07:20:04;-1.10;99.90
19449;DHT22;9863;49.404;8.246;2023-03-01T07:22:32;-1.20;99.90
19449;DHT22;9863;49.404;8.246;2023-03-01T07:24:59;-1.00;99.90
19449;DHT22;9863;49.404;8.246;2023-03-01T07:27:26;-1.00;99.90
19449;DHT22;9863;49.404;8.246;2023-03-01T07:29:53;-0.80;99.90
19449;DHT22;9863;49.404;8.246;2023-03-01T07:32:20;-0.80;99.90
19449;DHT22;9863;49.404;8.246;2023-03-01T07:34:47;-0.80;99.90
19449;DHT22;9863;49.404;8.246;2023-03-01T07:37:14;0.10;99.90
19449;DHT22;9863;49.404;8.246;2023-03-01T07:39:41;-0.60;99.90
19449;DHT22;9863;49.404;8.246;2023-03-01T07:42:08;-0.30;99.90
19449;DHT22;9863;49.404;8.246;2023-03-01T07:44:36;-0.50;99.90
19449;DHT22;9863;49.404;8.246;2023-03-01T07:47:03;-0.60;99.90
19449;DHT22;9863;49.404;8.246;2023-03-01T07:49:31;-0.50;99.90
19449;DHT22;9863;49.404;8.246;2023-03-01T07:51:58;0.60;99.90
19449;DHT22;9863;49.404;8.246;2023-03-01T07:54:25;-0.40;99.90
19449;DHT22;9863;49.404;8.246;2023-03-01T07:56:52;0.50;99.90
19449;DHT22;9863;49.404;8.246;2023-03-01T07:59:21;0.00;99.90
19449;DHT22;9863;49.404;8.246;2023-03-01T08:01:50;0.30;99.90
19449;DHT22;9863;49.404;8.246;2023-03-01T08:04:17;-0.10;99.90
19449;DHT22;9863;49.404;8.246;2023-03-01T08:06:44;0.80;99.90
19449;DHT22;9863;49.404;8.246;2023-03-01T08:09:11;0.10;99.90
19449;DHT22;9863;49.404;8.246;2023-03-01T08:11:38;0.10;99.90
19449;DHT22;9863;49.404;8.246;2023-03-01T08:14:06;0.10;99.90
19449;DHT22;9863;49.404;8.246;2023-03-01T08:16:33;0.80;99.90
19449;DHT22;9863;49.404;8.246;2023-03-01T08:19:09;0.60;99.90
19449;DHT22;9863;49.404;8.246;2023-03-01T08:21:37;0.50;99.90
19449;DHT22;9863;49.404;8.246;2023-03-01T08:24:06;1.30;99.90
19449;DHT22;9863;49.404;8.246;2023-03-01T08:26:34;0.70;99.90
19449;DHT22;9863;49.404;8.246;2023-03-01T08:29:01;1.00;99.90
19449;DHT22;9863;49.404;8.246;2023-03-01T08:31:38;1.60;99.90
19449;DHT22;9863;49.404;8.246;2023-03-01T08:34:12;1.60;99.90
19449;DHT22;9863;49.404;8.246;2023-03-01T08:36:42;0.90;99.90
19449;DHT22;9863;49.404;8.246;2023-03-01T08:39:13;1.00;99.90
19449;DHT22;9863;49.404;8.246;2023-03-01T08:41:43;1.40;99.90
19449;DHT22;9863;49.404;8.246;2023-03-01T08:44:14;1.20;99.90
19449;DHT22;9863;49.404;8.246;2023-03-01T08:46:44;1.20;99.90
19449;DHT22;9863;49.404;8.246;2023-03-01T08:49:14;1.30;99.90
19449;DHT22;9863;49.404;8.246;2023-03-01T08:51:43;1.50;99.90
19449;DHT22;9863;49.404;8.246;2023-03-01T08:54:16;1.70;99.90
19449;DHT22;9863;49.404;8.246;2023-03-01T08:56:46;1.80;99.90
19449;DHT22;9863;49.404;8.246;2023-03-01T08:59:14;1.50;99.90
19449;DHT22;9863;49.404;8.246;2023-03-01T09:01:42;1.60;99.90
19449;DHT22;9863;49.404;8.246;2023-03-01T09:04:14;1.70;99.90
19449;DHT22;9863;49.404;8.246;2023-03-01T09:06:42;1.60;99.90
19449;DHT22;9863;49.404;8.246;2023-03-01T09:09:14;1.70;99.90
19449;DHT22;9863;49.404;8.246;2023-03-01T09:11:44;1.70;99.90
19449;DHT22;9863;49.404;8.246;2023-03-01T09:14:16;2.00;99.90
19449;DHT22;9863;49.404;8.246;2023-03-01T09:16:43;2.10;99.90
19449;DHT22;9863;49.404;8.246;2023-03-01T09:19:11;2.00;99.90
19449;DHT22;9863;49.404;8.246;2023-03-01T09:21:39;2.10;99.90
19449;DHT22;9863;49.404;8.246;2023-03-01T09:24:13;2.40;99.90
19449;DHT22;9863;49.404;8.246;2023-03-01T09:26:42;2.30;99.90
19449;DHT22;9863;49.404;8.246;2023-03-01T09:29:15;2.50;99.90
19449;DHT22;9863;49.404;8.246;2023-03-01T09:31:43;2.30;99.90
19449;DHT22;9863;49.404;8.246;2023-03-01T09:34:10;2.30;99.90
19449;DHT22;9863;49.404;8.246;2023-03-01T09:36:37;2.40;99.90
19449;DHT22;9863;49.404;8.246;2023-03-01T09:39:05;2.70;99.90
19449;DHT22;9863;49.404;8.246;2023-03-01T09:44:40;2.60;99.90
19449;DHT22;9863;49.404;8.246;2023-03-01T09:47:18;2.50;99.90
19449;DHT22;9863;49.404;8.246;2023-03-01T09:50:09;2.70;99.90
19449;DHT22;9863;49.404;8.246;2023-03-01T09:53:05;2.60;99.90
19449;DHT22;9863;49.404;8.246;2023-03-01T09:55:55;2.90;99.90
19449;DHT22;9863;49.404;8.246;2023-03-01T10:01:59;3.10;99.90
19449;DHT22;9863;49.404;8.246;2023-03-01T10:04:52;3.20;99.90
19449;DHT22;9863;49.404;8.246;2023-03-01T10:07:31;3.30;99.90
19449;DHT22;9863;49.404;8.246;2023-03-01T10:10:38;3.40;99.90
19449;DHT22;9863;49.404;8.246;2023-03-01T10:13:15;3.40;99.90
19449;DHT22;9863;49.404;8.246;2023-03-01T10:15:59;3.60;99.90
19449;DHT22;9863;49.404;8.246;2023-03-01T10:18:30;3.60;99.90
19449;DHT22;9863;49.404;8.246;2023-03-01T10:21:15;3.70;99.90
19449;DHT22;9863;49.404;8.246;2023-03-01T10:23:44;3.80;99.90
19449;DHT22;9863;49.404;8.246;2023-03-01T10:29:07;3.80;99.90
19449;DHT22;9863;49.404;8.246;2023-03-01T10:31:47;4.00;99.90
19449;DHT22;9863;49.404;8.246;2023-03-01T10:34:20;4.10;99.90
19449;DHT22;9863;49.404;8.246;2023-03-01T10:36:53;4.00;99.90
19449;DHT22;9863;49.404;8.246;2023-03-01T10:39:36;4.20;99.90
19449;DHT22;9863;49.404;8.246;2023-03-01T10:42:22;4.20;99.90
19449;DHT22;9863;49.404;8.246;2023-03-01T10:44:54;4.20;99.90
19449;DHT22;9863;49.404;8.246;2023-03-01T10:47:26;4.50;99.90
19449;DHT22;9863;49.404;8.246;2023-03-01T10:50:04;4.30;99.90
19449;DHT22;9863;49.404;8.246;2023-03-01T10:52:40;4.60;99.90
19449;DHT22;9863;49.404;8.246;2023-03-01T10:55:30;4.80;99.90
19449;DHT22;9863;49.404;8.246;2023-03-01T10:58:17;5.00;99.90
19449;DHT22;9863;49.404;8.246;2023-03-01T11:00:55;5.10;99.90
19449;DHT22;9863;49.404;8.246;2023-03-01T11:03:29;5.10;99.90
19449;DHT22;9863;49.404;8.246;2023-03-01T11:08:41;5.10;99.90
19449;DHT22;9863;49.404;8.246;2023-03-01T11:17:12;5.80;99.90
19449;DHT22;9863;49.404;8.246;2023-03-01T11:20:20;6.10;99.90
19449;DHT22;9863;49.404;8.246;2023-03-01T11:23:04;6.20;99.90
19449;DHT22;9863;49.404;8.246;2023-03-01T11:25:39;6.50;99.90
19449;DHT22;9863;49.404;8.246;2023-03-01T11:28:14;6.70;99.90
19449;DHT22;9863;49.404;8.246;2023-03-01T11:31:05;6.90;99.90
19449;DHT22;9863;49.404;8.246;2023-03-01T11:39:12;7.20;99.90
19449;DHT22;9863;49.404;8.246;2023-03-01T11:41:52;7.30;99.90
19449;DHT22;9863;49.404;8.246;2023-03-01T11:44:46;7.30;99.90
19449;DHT22;9863;49.404;8.246;2023-03-01T11:47:37;7.50;99.90
19449;DHT22;9863;49.404;8.246;2023-03-01T11:50:39;7.20;99.90
19449;DHT22;9863;49.404;8.246;2023-03-01T11:56:32;7.50;99.90
19449;DHT22;9863;49.404;8.246;2023-03-01T11:59:38;7.80;99.90
19449;DHT22;9863;49.404;8.246;2023-03-01T12:08:17;8.50;99.90
19449;DHT22;9863;49.404;8.246;2023-03-01T12:11:23;8.00;99.90
19449;DHT22;9863;49.404;8.246;2023-03-01T12:14:26;8.10;99.90
19449;DHT22;9863;49.404;8.246;2023-03-01T12:17:45;8.30;99.90
19449;DHT22;9863;49.404;8.246;2023-03-01T12:26:32;8.60;99.90
19449;DHT22;9863;49.404;8.246;2023-03-01T12:34:33;8.70;99.90
19449;DHT22;9863;49.404;8.246;2023-03-01T12:40:03;8.90;99.90
19449;DHT22;9863;49.404;8.246;2023-03-01T12:43:15;8.80;99.90
19449;DHT22;9863;49.404;8.246;2023-03-01T12:51:34;9.10;99.90
19449;DHT22;9863;49.404;8.246;2023-03-01T12:54:12;9.20;99.90
19449;DHT22;9863;49.404;8.246;2023-03-01T12:56:45;8.80;99.90
19449;DHT22;9863;49.404;8.246;2023-03-01T12:59:59;8.90;99.90
19449;DHT22;9863;49.404;8.246;2023-03-01T13:06:02;9.60;99.90
19449;DHT22;9863;49.404;8.246;2023-03-01T13:11:49;10.20;99.90
19449;DHT22;9863;49.404;8.246;2023-03-01T13:16:53;9.90;99.90
19449;DHT22;9863;49.404;8.246;2023-03-01T13:19:28;9.60;99.90
19449;DHT22;9863;49.404;8.246;2023-03-01T13:21:56;9.80;99.90
19449;DHT22;9863;49.404;8.246;2023-03-01T13:32:24;10.10;99.90
19449;DHT22;9863;49.404;8.246;2023-03-01T13:37:44;10.20;99.90
19449;DHT22;9863;49.404;8.246;2023-03-01T13:42:50;10.00;99.90
19449;DHT22;9863;49.404;8.246;2023-03-01T13:45:42;10.20;99.90
19449;DHT22;9863;49.404;8.246;2023-03-01T13:48:29;10.20;99.90
19449;DHT22;9863;49.404;8.246;2023-03-01T13:51:25;10.30;99.90
19449;DHT22;9863;49.404;8.246;2023-03-01T13:53:55;10.40;99.90
19449;DHT22;9863;49.404;8.246;2023-03-01T13:56:29;10.30;99.90
19449;DHT22;9863;49.404;8.246;2023-03-01T13:59:05;10.50;99.90
19449;DHT22;9863;49.404;8.246;2023-03-01T14:01:43;10.50;99.90
19449;DHT22;9863;49.404;8.246;2023-03-01T14:09:52;10.50;99.90
19449;DHT22;9863;49.404;8.246;2023-03-01T14:15:31;10.80;99.90
19449;DHT22;9863;49.404;8.246;2023-03-01T14:18:17;10.70;99.90
19449;DHT22;9863;49.404;8.246;2023-03-01T14:20:48;10.70;99.90
19449;DHT22;9863;49.404;8.246;2023-03-01T14:23:23;10.40;99.90
19449;DHT22;9863;49.404;8.246;2023-03-01T14:25:55;10.70;99.90
19449;DHT22;9863;49.404;8.246;2023-03-01T14:28:29;11.00;99.60
19449;DHT22;9863;49.404;8.246;2023-03-01T14:33:41;10.70;99.90
19449;DHT22;9863;49.404;8.246;2023-03-01T14:36:11;10.40;99.90
19449;DHT22;9863;49.404;8.246;2023-03-01T14:38:47;10.30;99.90
19449;DHT22;9863;49.404;8.246;2023-03-01T14:41:20;10.40;99.70
19449;DHT22;9863;49.404;8.246;2023-03-01T14:43:52;10.30;99.80
19449;DHT22;9863;49.404;8.246;2023-03-01T14:46:34;10.20;99.90
19449;DHT22;9863;49.404;8.246;2023-03-01T14:51:56;10.60;99.90
19449;DHT22;9863;49.404;8.246;2023-03-01T14:54:39;10.60;99.90
19449;DHT22;9863;49.404;8.246;2023-03-01T14:57:22;10.70;99.90
19449;DHT22;9863;49.404;8.246;2023-03-01T14:59:54;10.50;99.80
19449;DHT22;9863;49.404;8.246;2023-03-01T15:02:24;10.30;99.70
19449;DHT22;9863;49.404;8.246;2023-03-01T15:04:56;10.50;99.90
19449;DHT22;9863;49.404;8.246;2023-03-01T15:07:32;10.50;99.40
19449;DHT22;9863;49.404;8.246;2023-03-01T15:10:03;10.40;99.40
19449;DHT22;9863;49.404;8.246;2023-03-01T15:14:58;10.20;99.10
19449;DHT22;9863;49.404;8.246;2023-03-01T15:17:35;10.90;99.80
19449;DHT22;9863;49.404;8.246;2023-03-01T15:20:07;10.60;99.40
19449;DHT22;9863;49.404;8.246;2023-03-01T15:22:44;10.60;99.10
19449;DHT22;9863;49.404;8.246;2023-03-01T15:25:21;10.50;99.30
19449;DHT22;9863;49.404;8.246;2023-03-01T15:27:52;10.50;99.60
19449;DHT22;9863;49.404;8.246;2023-03-01T15:30:44;10.70;99.80
19449;DHT22;9863;49.404;8.246;2023-03-01T15:39:53;10.70;99.30
19449;DHT22;9863;49.404;8.246;2023-03-01T15:47:48;10.40;99.00
19449;DHT22;9863;49.404;8.246;2023-03-01T15:52:58;10.40;98.70
19449;DHT22;9863;49.404;8.246;2023-03-01T15:55:29;10.20;99.20
19449;DHT22;9863;49.404;8.246;2023-03-01T16:00:35;10.10;99.40
19449;DHT22;9863;49.404;8.246;2023-03-01T16:03:02;9.80;99.90
19449;DHT22;9863;49.404;8.246;2023-03-01T16:05:34;10.00;99.50
19449;DHT22;9863;49.404;8.246;2023-03-01T16:08:02;10.00;99.20
19449;DHT22;9863;49.404;8.246;2023-03-01T16:10:30;10.00;99.90
19449;DHT22;9863;49.404;8.246;2023-03-01T16:12:58;9.80;99.90
19449;DHT22;9863;49.404;8.246;2023-03-01T16:15:28;9.80;99.90
19449;DHT22;9863;49.404;8.246;2023-03-01T16:17:58;9.70;99.90
19449;DHT22;9863;49.404;8.246;2023-03-01T16:20:26;9.60;99.90
19449;DHT22;9863;49.404;8.246;2023-03-01T16:23:08;9.60;99.90
19449;DHT22;9863;49.404;8.246;2023-03-01T16:25:37;9.30;99.90
19449;DHT22;9863;49.404;8.246;2023-03-01T16:28:04;9.10;99.90
19449;DHT22;9863;49.404;8.246;2023-03-01T16:30:37;9.00;99.90
19449;DHT22;9863;49.404;8.246;2023-03-01T16:33:06;8.90;99.90
19449;DHT22;9863;49.404;8.246;2023-03-01T16:35:54;8.80;99.90
19449;DHT22;9863;49.404;8.246;2023-03-01T16:38:22;8.80;99.90
19449;DHT22;9863;49.404;8.246;2023-03-01T16:40:50;8.60;99.90
19449;DHT22;9863;49.404;8.246;2023-03-01T16:43:18;8.40;99.90
19449;DHT22;9863;49.404;8.246;2023-03-01T16:45:45;8.30;99.90
19449;DHT22;9863;49.404;8.246;2023-03-01T16:48:13;8.20;99.90
19449;DHT22;9863;49.404;8.246;2023-03-01T16:50:40;8.10;99.90
19449;DHT22;9863;49.404;8.246;2023-03-01T16:53:08;8.00;99.90
19449;DHT22;9863;49.404;8.246;2023-03-01T16:55:35;7.90;99.90
19449;DHT22;9863;49.404;8.246;2023-03-01T16:58:03;7.80;99.90
19449;DHT22;9863;49.404;8.246;2023-03-01T17:00:31;7.70;99.90
19449;DHT22;9863;49.404;8.246;2023-03-01T17:02:58;7.50;99.90
19449;DHT22;9863;49.404;8.246;2023-03-01T17:05:25;7.40;99.90
19449;DHT22;9863;49.404;8.246;2023-03-01T17:07:52;7.30;99.90
19449;DHT22;9863;49.404;8.246;2023-03-01T17:10:22;7.20;99.90
19449;DHT22;9863;49.404;8.246;2023-03-01T17:12:49;7.00;99.90
19449;DHT22;9863;49.404;8.246;2023-03-01T17:15:16;6.90;99.90
19449;DHT22;9863;49.404;8.246;2023-03-01T17:17:44;6.80;99.90
19449;DHT22;9863;49.404;8.246;2023-03-01T17:20:11;6.70;99.90
19449;DHT22;9863;49.404;8.246;2023-03-01T17:22:38;6.60;99.90
19449;DHT22;9863;49.404;8.246;2023-03-01T17:25:10;6.50;99.90
19449;DHT22;9863;49.404;8.246;2023-03-01T17:27:39;6.40;99.90
19449;DHT22;9863;49.404;8.246;2023-03-01T17:30:08;6.30;99.90
19449;DHT22;9863;49.404;8.246;2023-03-01T17:32:36;6.20;99.90
19449;DHT22;9863;49.404;8.246;2023-03-01T17:35:04;6.20;99.90
19449;DHT22;9863;49.404;8.246;2023-03-01T17:37:31;6.10;99.90
19449;DHT22;9863;49.404;8.246;2023-03-01T17:39:58;6.10;99.90
19449;DHT22;9863;49.404;8.246;2023-03-01T17:42:25;6.00;99.90
19449;DHT22;9863;49.404;8.246;2023-03-01T17:44:52;5.90;99.90
19449;DHT22;9863;49.404;8.246;2023-03-01T17:47:19;5.90;99.90
19449;DHT22;9863;49.404;8.246;2023-03-01T17:49:46;5.80;99.90
19449;DHT22;9863;49.404;8.246;2023-03-01T17:52:13;5.70;99.90
19449;DHT22;9863;49.404;8.246;2023-03-01T17:54:41;5.70;99.90
19449;DHT22;9863;49.404;8.246;2023-03-01T17:57:07;5.60;99.90
19449;DHT22;9863;49.404;8.246;2023-03-01T17:59:36;5.40;99.90
19449;DHT22;9863;49.404;8.246;2023-03-01T18:02:03;5.40;99.90
19449;DHT22;9863;49.404;8.246;2023-03-01T18:04:30;5.30;99.90
19449;DHT22;9863;49.404;8.246;2023-03-01T18:06:58;5.00;99.90
19449;DHT22;9863;49.404;8.246;2023-03-01T18:09:28;4.90;99.90
19449;DHT22;9863;49.404;8.246;2023-03-01T18:11:56;4.70;99.90
19449;DHT22;9863;49.404;8.246;2023-03-01T18:14:24;4.70;99.90
19449;DHT22;9863;49.404;8.246;2023-03-01T18:16:55;4.60;99.90
19449;DHT22;9863;49.404;8.246;2023-03-01T18:19:22;4.60;99.90
19449;DHT22;9863;49.404;8.246;2023-03-01T18:21:49;4.70;99.90
19449;DHT22;9863;49.404;8.246;2023-03-01T18:24:16;4.50;99.90
19449;DHT22;9863;49.404;8.246;2023-03-01T18:26:43;4.40;99.90
19449;DHT22;9863;49.404;8.246;2023-03-01T18:29:10;4.30;99.90